createdAt,value
2023-05-12T00:01:22.714Z,98471.28
2023-05-12T00:03:49.734Z,98468.09
2023-05-12T00:06:16.748Z,98467.63
2023-05-12T00:08:43.481Z,98468.56
2023-05-12T00:11:10.394Z,98465.06
2023-05-12T00:13:37.813Z,98461.69
2023-05-12T00:16:05.357Z,98468.59
2023-05-12T00:18:32.165Z,98469.38
2023-05-12T00:20:59.023Z,98459.31
2023-05-12T00:23:25.826Z,98470.19
2023-05-12T00:25:52.759Z,98462.97
2023-05-12T00:28:20.636Z,98461.06
2023-05-12T00:30:47.451Z,98463.78
2023-05-12T00:33:14.419Z,98464.44
2023-05-12T00:35:41.242Z,98455.31
2023-05-12T00:38:11.282Z,98461.06
2023-05-12T00:40:39.017Z,98465.69
2023-05-12T00:43:05.923Z,98459.63
2023-05-12T00:45:32.809Z,98456.75
2023-05-12T00:47:59.674Z,98457.22
2023-05-12T00:50:27.330Z,98448.56
2023-05-12T00:52:54.465Z,98452.91
2023-05-12T00:55:21.530Z,98450.19
2023-05-12T00:57:48.251Z,98450.81
2023-05-12T01:00:15.394Z,98447.31
2023-05-12T01:02:42.571Z,98451.16
2023-05-12T01:05:10.304Z,98448.91
2023-05-12T01:07:39.041Z,98441.22
2023-05-12T01:10:21.668Z,98449.06
2023-05-12T01:12:49.164Z,98442.00
2023-05-12T01:15:17.959Z,98442.66
2023-05-12T01:17:54.338Z,98441.38
2023-05-12T01:20:26.334Z,98445.88
2023-05-12T01:22:55.534Z,98450.19
2023-05-12T01:25:24.578Z,98443.16
2023-05-12T01:27:53.681Z,98444.28
2023-05-12T01:30:24.843Z,98445.41
2023-05-12T01:32:52.852Z,98440.91
2023-05-12T01:35:19.639Z,98446.34
2023-05-12T01:37:46.472Z,98445.22
2023-05-12T01:40:14.000Z,98448.72
2023-05-12T01:42:42.538Z,98451.78
2023-05-12T01:45:10.181Z,98448.91
2023-05-12T01:47:37.128Z,98443.78
2023-05-12T01:50:04.233Z,98450.19
2023-05-12T01:52:31.043Z,98442.50
2023-05-12T01:54:57.849Z,98439.63
2023-05-12T01:57:24.667Z,98442.97
2023-05-12T01:59:51.574Z,98445.53
2023-05-12T02:02:21.155Z,98444.41
2023-05-12T02:04:48.044Z,98444.75
2023-05-12T02:07:15.731Z,98440.28
2023-05-12T02:09:42.500Z,98445.38
2023-05-12T02:12:09.570Z,98445.84
2023-05-12T02:14:36.305Z,98443.47
2023-05-12T02:17:04.474Z,98440.59
2023-05-12T02:19:31.295Z,98440.59
2023-05-12T02:21:58.089Z,98434.34
2023-05-12T02:24:24.854Z,98432.72
2023-05-12T02:26:51.609Z,98429.53
2023-05-12T02:29:18.605Z,98436.56
2023-05-12T02:31:46.030Z,98438.50
2023-05-12T02:34:12.878Z,98435.44
2023-05-12T02:36:39.755Z,98439.00
2023-05-12T02:39:06.551Z,98443.78
2023-05-12T02:41:33.368Z,98442.81
2023-05-12T02:44:00.215Z,98435.31
2023-05-12T02:46:27.008Z,98446.03
2023-05-12T02:48:53.754Z,98448.59
2023-05-12T02:51:20.830Z,98441.72
2023-05-12T02:53:48.007Z,98444.09
2023-05-12T02:56:14.858Z,98437.53
2023-05-12T02:58:42.062Z,98436.75
2023-05-12T03:01:11.244Z,98443.47
2023-05-12T03:03:39.075Z,98433.56
2023-05-12T03:06:06.890Z,98439.47
2023-05-12T03:08:33.831Z,98440.75
2023-05-12T03:11:00.662Z,98440.28
2023-05-12T03:13:27.720Z,98434.34
2023-05-12T03:15:54.542Z,98442.66
2023-05-12T03:18:24.331Z,98438.66
2023-05-12T03:20:52.058Z,98440.28
2023-05-12T03:23:20.338Z,98441.41
2023-05-12T03:25:47.108Z,98438.34
2023-05-12T03:28:13.990Z,98442.84
2023-05-12T03:30:40.905Z,98442.84
2023-05-12T03:33:07.699Z,98435.78
2023-05-12T03:35:34.523Z,98439.47
2023-05-12T03:38:01.563Z,98438.84
2023-05-12T03:40:30.518Z,98446.66
2023-05-12T03:42:57.343Z,98432.44
2023-05-12T03:45:24.158Z,98436.09
2023-05-12T03:47:51.004Z,98436.25
2023-05-12T03:50:18.138Z,98443.94
2023-05-12T03:52:45.036Z,98431.94
2023-05-12T03:55:11.939Z,98428.28
2023-05-12T03:57:38.783Z,98435.31
2023-05-12T04:00:06.953Z,98432.91
2023-05-12T04:02:33.893Z,98432.75
2023-05-12T04:05:01.261Z,98427.63
2023-05-12T04:07:28.039Z,98434.03
2023-05-12T04:09:54.942Z,98431.47
2023-05-12T04:12:21.817Z,98439.00
2023-05-12T04:14:49.207Z,98437.72
2023-05-12T04:17:18.566Z,98434.50
2023-05-12T04:19:45.395Z,98437.53
2023-05-12T04:22:12.211Z,98446.34
2023-05-12T04:24:39.068Z,98445.41
2023-05-12T04:27:07.185Z,98438.66
2023-05-12T04:29:37.154Z,98440.75
2023-05-12T04:32:04.409Z,98444.25
2023-05-12T04:34:31.326Z,98442.50
2023-05-12T04:36:58.182Z,98438.66
2023-05-12T04:39:25.013Z,98449.38
2023-05-12T04:41:51.759Z,98451.28
2023-05-12T04:44:18.526Z,98454.50
2023-05-12T04:46:45.720Z,98451.47
2023-05-12T04:49:13.589Z,98452.44
2023-05-12T04:51:42.313Z,98453.22
2023-05-12T04:54:12.272Z,98453.56
2023-05-12T04:56:39.165Z,98452.09
2023-05-12T04:59:06.503Z,98452.59
2023-05-12T05:01:33.829Z,98451.94
2023-05-12T05:04:00.703Z,98453.56
2023-05-12T05:06:28.219Z,98450.97
2023-05-12T05:08:55.906Z,98450.84
2023-05-12T05:11:23.494Z,98466.69
2023-05-12T05:13:50.695Z,98466.34
2023-05-12T05:16:18.015Z,98470.34
2023-05-12T05:18:49.389Z,98463.78
2023-05-12T05:21:16.214Z,98464.44
2023-05-12T05:23:43.032Z,98468.25
2023-05-12T05:26:10.637Z,98467.94
2023-05-12T05:28:39.768Z,98469.56
2023-05-12T05:31:07.441Z,98469.84
2023-05-12T05:33:34.288Z,98471.94
2023-05-12T05:36:01.195Z,98473.72
2023-05-12T05:38:28.120Z,98475.44
2023-05-12T05:40:57.587Z,98479.28
2023-05-12T05:43:24.383Z,98479.28
2023-05-12T05:45:51.701Z,98485.69
2023-05-12T05:48:19.158Z,98483.91
2023-05-12T05:50:46.568Z,98485.03
2023-05-12T05:53:14.537Z,98478.97
2023-05-12T05:55:41.234Z,98490.50
2023-05-12T05:58:08.532Z,98490.78
2023-05-12T06:00:35.511Z,98486.31
2023-05-12T06:03:02.651Z,98488.06
2023-05-12T06:05:29.827Z,98487.56
2023-05-12T06:07:56.593Z,98488.50
2023-05-12T06:10:23.437Z,98487.84
2023-05-12T06:12:53.430Z,98491.72
2023-05-12T06:15:20.416Z,98493.78
2023-05-12T06:17:48.020Z,98497.00
2023-05-12T06:20:14.931Z,98492.66
2023-05-12T06:22:47.338Z,98494.59
2023-05-12T06:25:14.166Z,98495.38
2023-05-12T06:27:40.959Z,98497.47
2023-05-12T06:30:09.510Z,98499.50
2023-05-12T06:32:36.291Z,98502.25
2023-05-12T06:35:03.378Z,98502.25
2023-05-12T06:37:30.186Z,98504.00
2023-05-12T06:39:56.968Z,98497.28
2023-05-12T06:42:23.740Z,98507.19
2023-05-12T06:44:50.697Z,98502.53
2023-05-12T06:47:17.494Z,98507.66
2023-05-12T06:49:44.322Z,98510.03
2023-05-12T06:52:11.110Z,98503.72
2023-05-12T06:54:40.765Z,98508.78
2023-05-12T06:57:08.055Z,98506.16
2023-05-12T06:59:35.212Z,98507.81
2023-05-12T07:02:04.561Z,98505.28
2023-05-12T07:04:31.404Z,98511.31
2023-05-12T07:06:58.269Z,98505.16
2023-05-12T07:09:25.023Z,98506.63
2023-05-12T07:11:51.813Z,98512.06
2023-05-12T07:14:18.624Z,98514.78
2023-05-12T07:16:45.461Z,98518.66
2023-05-12T07:19:12.338Z,98513.00
2023-05-12T07:21:39.521Z,98508.16
2023-05-12T07:24:06.597Z,98511.38
2023-05-12T07:26:33.554Z,98507.63
2023-05-12T07:29:00.938Z,98504.59
2023-05-12T07:31:28.677Z,98507.25
2023-05-12T07:33:56.063Z,98508.25
2023-05-12T07:36:23.208Z,98511.91
2023-05-12T07:38:50.231Z,98505.13
2023-05-12T07:41:18.043Z,98509.31
2023-05-12T07:43:45.751Z,98506.09
2023-05-12T07:46:12.975Z,98510.59
2023-05-12T07:48:40.459Z,98510.81
2023-05-12T07:51:08.390Z,98510.91
2023-05-12T07:53:35.686Z,98504.00
2023-05-12T07:56:02.617Z,98509.25
2023-05-12T07:58:29.749Z,98513.41
2023-05-12T08:00:59.025Z,98505.22
2023-05-12T08:03:26.303Z,98500.34
2023-05-12T08:05:53.217Z,98507.28
2023-05-12T08:08:19.988Z,98505.91
2023-05-12T08:10:46.700Z,98505.66
2023-05-12T08:13:13.549Z,98509.78
2023-05-12T08:15:40.413Z,98510.81
2023-05-12T08:18:07.242Z,98506.53
2023-05-12T08:20:34.821Z,98511.16
2023-05-12T08:23:02.844Z,98505.94
2023-05-12T08:25:30.702Z,98506.00
2023-05-12T08:27:59.387Z,98503.88
2023-05-12T08:30:27.400Z,98502.56
2023-05-12T08:32:56.578Z,98508.75
2023-05-12T08:35:26.705Z,98509.53
2023-05-12T08:37:56.684Z,98516.50
2023-05-12T08:40:26.253Z,98514.91
2023-05-12T08:43:31.280Z,98516.97
2023-05-12T08:45:58.506Z,98508.16
2023-05-12T08:48:27.863Z,98515.66
2023-05-12T08:50:55.149Z,98519.44
2023-05-12T08:53:24.244Z,98521.47
2023-05-12T08:57:08.966Z,98516.56
2023-05-12T08:58:41.961Z,98525.84
2023-05-12T09:01:11.989Z,98527.53
2023-05-12T09:03:39.377Z,98524.56
2023-05-12T09:06:08.084Z,98521.06
2023-05-12T09:08:36.616Z,98513.44
2023-05-12T09:11:03.741Z,98518.34
2023-05-12T09:14:02.996Z,98517.44
2023-05-12T09:16:39.388Z,98514.81
2023-05-12T09:19:07.245Z,98517.69
2023-05-12T09:21:34.367Z,98524.06
2023-05-12T09:24:08.859Z,98513.50
2023-05-12T09:26:54.108Z,98515.63
2023-05-12T09:29:31.330Z,98521.56
2023-05-12T09:32:02.679Z,98512.66
2023-05-12T09:34:38.099Z,98516.53
2023-05-12T09:37:07.695Z,98515.97
2023-05-12T09:39:36.086Z,98519.94
2023-05-12T09:42:03.087Z,98523.34
2023-05-12T09:44:32.046Z,98522.66
2023-05-12T09:47:07.926Z,98522.66
2023-05-12T09:49:38.315Z,98521.06
2023-05-12T09:52:05.544Z,98522.34
2023-05-12T09:54:34.309Z,98523.03
2023-05-12T09:57:04.974Z,98522.44
2023-05-12T09:59:35.966Z,98515.31
2023-05-12T10:02:08.858Z,98520.19
2023-05-12T10:05:06.399Z,98520.19
2023-05-12T10:07:34.876Z,98515.06
2023-05-12T10:10:05.538Z,98515.09
2023-05-12T10:12:32.343Z,98524.31
2023-05-12T10:15:00.320Z,98525.09
2023-05-12T10:17:28.291Z,98520.25
2023-05-12T10:19:56.548Z,98531.44
2023-05-12T10:22:24.687Z,98529.13
2023-05-12T10:24:55.377Z,98525.13
2023-05-12T10:27:27.094Z,98519.69
2023-05-12T10:29:55.293Z,98524.56
2023-05-12T10:32:22.246Z,98524.47
2023-05-12T10:34:49.050Z,98530.03
2023-05-12T10:37:15.788Z,98524.69
2023-05-12T10:39:51.434Z,98521.75
2023-05-12T10:42:26.933Z,98522.53
2023-05-12T10:44:56.273Z,98523.91
2023-05-12T10:47:37.202Z,98519.47
2023-05-12T10:50:04.471Z,98519.16
2023-05-12T10:52:31.260Z,98516.78
2023-05-12T10:55:03.910Z,98515.53
2023-05-12T10:57:33.357Z,98514.59
2023-05-12T11:00:02.547Z,98522.63
2023-05-12T11:02:34.436Z,98511.22
2023-05-12T11:05:12.476Z,98509.19
2023-05-12T11:07:41.870Z,98510.78
2023-05-12T11:10:11.173Z,98510.28
2023-05-12T11:12:38.231Z,98506.50
2023-05-12T11:15:06.754Z,98509.44
2023-05-12T11:17:34.309Z,98522.28
2023-05-12T11:20:01.916Z,98517.56
2023-05-12T11:22:28.841Z,98525.66
2023-05-12T11:24:55.994Z,98523.16
2023-05-12T11:27:24.075Z,98525.53
2023-05-12T11:30:04.691Z,98528.84
2023-05-12T11:32:31.709Z,98526.63
2023-05-12T11:35:16.424Z,98526.84
2023-05-12T11:37:45.379Z,98522.94
2023-05-12T11:40:19.370Z,98525.00
2023-05-12T11:42:52.526Z,98530.28
2023-05-12T11:45:28.788Z,98527.44
2023-05-12T11:48:12.463Z,98529.16
2023-05-12T11:50:44.036Z,98525.72
2023-05-12T11:53:19.500Z,98520.56
2023-05-12T11:55:55.804Z,98526.75
2023-05-12T11:58:30.497Z,98520.25
2023-05-12T12:01:10.001Z,98524.28
2023-05-12T12:03:50.556Z,98532.41
2023-05-12T12:06:18.746Z,98531.06
2023-05-12T12:08:59.740Z,98529.09
2023-05-12T12:11:28.268Z,98532.25
2023-05-12T12:13:58.299Z,98542.69
2023-05-12T12:16:30.170Z,98530.06
2023-05-12T12:18:58.269Z,98532.00
2023-05-12T12:21:25.592Z,98536.44
2023-05-12T12:23:52.567Z,98540.88
2023-05-12T12:26:21.476Z,98548.06
2023-05-12T12:28:49.192Z,98550.44
2023-05-12T12:31:16.810Z,98546.81
2023-05-12T12:33:43.556Z,98543.28
2023-05-12T12:36:10.505Z,98553.63
2023-05-12T12:38:37.889Z,98552.00
2023-05-12T12:41:05.145Z,98551.50
2023-05-12T12:43:32.328Z,98553.63
2023-05-12T12:45:59.412Z,98548.25
2023-05-12T12:48:28.493Z,98539.94
2023-05-12T12:50:58.493Z,98546.56
2023-05-12T12:53:25.292Z,98550.38
2023-05-12T12:55:52.356Z,98545.84
2023-05-12T12:58:19.330Z,98544.56
2023-05-12T13:00:46.260Z,98548.97
2023-05-12T13:03:13.281Z,98547.38
2023-05-12T13:05:42.878Z,98539.34
2023-05-12T13:08:10.215Z,98535.91
2023-05-12T13:10:37.755Z,98539.94
2023-05-12T13:13:04.633Z,98540.56
2023-05-12T13:15:32.232Z,98547.81
2023-05-12T13:17:59.459Z,98546.22
2023-05-12T13:20:26.927Z,98559.47
2023-05-12T13:22:53.884Z,98551.66
2023-05-12T13:25:20.801Z,98542.38
2023-05-12T13:27:48.209Z,98546.72
2023-05-12T13:30:15.337Z,98553.88
2023-05-12T13:32:42.288Z,98543.06
2023-05-12T13:35:09.569Z,98541.69
2023-05-12T13:37:39.954Z,98549.41
2023-05-12T13:40:07.803Z,98545.69
2023-05-12T13:42:34.765Z,98545.59
2023-05-12T13:45:01.650Z,98542.38
2023-05-12T13:47:28.502Z,98551.81
2023-05-12T13:49:56.475Z,98549.13
2023-05-12T13:52:23.395Z,98544.78
2023-05-12T13:54:50.235Z,98538.72
2023-05-12T13:57:17.054Z,98538.28
2023-05-12T13:59:43.926Z,98546.94
2023-05-12T14:02:11.927Z,98533.13
2023-05-12T14:04:38.984Z,98530.50
2023-05-12T14:07:08.342Z,98543.06
2023-05-12T14:09:39.439Z,98545.66
2023-05-12T14:12:08.572Z,98541.69
2023-05-12T14:14:35.603Z,98535.75
2023-05-12T14:17:02.737Z,98541.16
2023-05-12T14:19:30.370Z,98544.06
2023-05-12T14:21:57.404Z,98539.16
2023-05-12T14:24:24.241Z,98539.06
2023-05-12T14:26:51.942Z,98542.84
2023-05-12T14:29:18.767Z,98545.16
2023-05-12T14:31:45.763Z,98550.69
2023-05-12T14:34:13.994Z,98548.34
2023-05-12T14:36:41.089Z,98552.78
2023-05-12T14:39:08.752Z,98562.56
2023-05-12T14:41:35.921Z,98553.78
2023-05-12T14:44:03.298Z,98564.06
2023-05-12T14:46:30.448Z,98560.81
2023-05-12T14:48:58.621Z,98557.47
2023-05-12T14:51:25.399Z,98560.94
2023-05-12T14:53:52.302Z,98561.09
2023-05-12T14:56:22.218Z,98560.59
2023-05-12T14:58:52.016Z,98560.03
2023-05-12T15:01:18.782Z,98564.56
2023-05-12T15:03:46.802Z,98569.16
2023-05-12T15:06:15.243Z,98568.28
2023-05-12T15:08:45.883Z,98565.09
2023-05-12T15:11:14.361Z,98574.00
2023-05-12T15:13:41.836Z,98570.03
2023-05-12T15:16:08.753Z,98577.66
2023-05-12T15:18:35.725Z,98573.13
2023-05-12T15:21:03.483Z,98572.28
2023-05-12T15:23:30.358Z,98582.44
2023-05-12T15:25:58.207Z,98575.06
2023-05-12T15:28:26.372Z,98579.63
2023-05-12T15:30:57.732Z,98571.16
2023-05-12T15:33:25.361Z,98583.00
2023-05-12T15:35:52.295Z,98572.56
2023-05-12T15:38:19.100Z,98580.44
2023-05-12T15:40:45.981Z,98583.09
2023-05-12T15:43:13.176Z,98571.22
2023-05-12T15:45:40.006Z,98576.00
2023-05-12T15:48:09.375Z,98575.31
2023-05-12T15:50:37.197Z,98574.59
2023-05-12T15:53:04.400Z,98577.41
2023-05-12T15:55:32.114Z,98572.88
2023-05-12T15:57:59.010Z,98573.00
2023-05-12T16:00:26.324Z,98579.38
2023-05-12T16:02:53.500Z,98582.38
2023-05-12T16:05:20.972Z,98578.88
2023-05-12T16:07:48.419Z,98574.66
2023-05-12T16:10:15.850Z,98579.81
2023-05-12T16:12:42.758Z,98575.63
2023-05-12T16:15:11.321Z,98575.63
2023-05-12T16:17:38.165Z,98578.47
2023-05-12T16:20:07.722Z,98576.50
2023-05-12T16:22:34.618Z,98576.63
2023-05-12T16:25:01.653Z,98577.41
2023-05-12T16:27:28.401Z,98580.59
2023-05-12T16:29:55.591Z,98567.84
2023-05-12T16:32:22.504Z,98572.38
2023-05-12T16:34:49.540Z,98571.38
2023-05-12T16:37:16.631Z,98568.16
2023-05-12T16:39:43.452Z,98569.56
2023-05-12T16:42:10.525Z,98567.28
2023-05-12T16:44:37.313Z,98571.59
2023-05-12T16:47:07.416Z,98577.53
2023-05-12T16:49:34.424Z,98569.19
2023-05-12T16:52:01.206Z,98576.44
2023-05-12T16:54:28.061Z,98579.50
2023-05-12T16:56:56.371Z,98579.28
2023-05-12T16:59:23.280Z,98579.00
2023-05-12T17:01:50.184Z,98582.16
2023-05-12T17:04:17.095Z,98577.63
2023-05-12T17:06:43.999Z,98582.19
2023-05-12T17:09:10.881Z,98576.38
2023-05-12T17:11:37.949Z,98588.34
2023-05-12T17:14:04.961Z,98586.75
2023-05-12T17:16:34.326Z,98590.31
2023-05-12T17:21:34.579Z,98596.69
2023-05-12T17:24:04.122Z,98604.69
2023-05-12T17:26:31.018Z,98598.41
2023-05-12T17:28:57.884Z,98612.31
2023-05-12T17:31:24.703Z,98607.19
2023-05-12T17:33:51.513Z,98609.00
2023-05-12T17:36:20.930Z,98610.38
2023-05-12T17:38:50.775Z,98612.97
2023-05-12T17:41:18.456Z,98614.34
2023-05-12T17:43:48.154Z,98607.63
2023-05-12T17:46:15.209Z,98612.28
2023-05-12T17:48:43.377Z,98606.47
2023-05-12T17:51:10.729Z,98610.81
2023-05-12T17:53:37.641Z,98610.59
2023-05-12T17:56:04.877Z,98614.34
2023-05-12T17:58:31.705Z,98614.69
2023-05-12T18:00:58.670Z,98617.28
2023-05-12T18:03:25.637Z,98617.13
2023-05-12T18:05:57.235Z,98623.72
2023-05-12T18:08:33.976Z,98618.94
2023-05-12T18:11:01.364Z,98619.63
2023-05-12T18:13:28.226Z,98624.53
2023-05-12T18:15:55.200Z,98620.50
2023-05-12T18:18:22.172Z,98618.13
2023-05-12T18:20:49.113Z,98624.50
2023-05-12T18:23:15.987Z,98627.56
2023-05-12T18:25:42.896Z,98629.50
2023-05-12T18:28:12.293Z,98624.03
2023-05-12T18:30:39.384Z,98634.16
2023-05-12T18:33:09.734Z,98639.38
2023-05-12T18:35:37.242Z,98636.84
2023-05-12T18:38:04.022Z,98633.84
2023-05-12T18:40:31.492Z,98632.94
2023-05-12T18:42:58.481Z,98634.41
2023-05-12T18:45:25.397Z,98637.47
2023-05-12T18:47:52.358Z,98641.41
2023-05-12T18:50:19.228Z,98639.31
2023-05-12T18:52:46.021Z,98635.19
2023-05-12T18:55:13.065Z,98642.00
2023-05-12T18:57:39.992Z,98641.25
2023-05-12T19:00:09.811Z,98645.94
2023-05-12T19:02:37.440Z,98649.34
2023-05-12T19:05:04.771Z,98648.88
2023-05-12T19:07:34.396Z,98654.66
2023-05-12T19:10:02.081Z,98664.78
2023-05-12T19:12:29.049Z,98668.19
2023-05-12T19:14:56.579Z,98666.31
2023-05-12T19:17:23.368Z,98670.63
2023-05-12T19:19:52.908Z,98676.75
2023-05-12T19:22:20.664Z,98680.44
2023-05-12T19:24:47.661Z,98679.16
2023-05-12T19:27:14.465Z,98687.38
2023-05-12T19:29:41.229Z,98689.63
2023-05-12T19:32:08.723Z,98693.47
2023-05-12T19:34:36.520Z,98695.09
2023-05-12T19:37:03.556Z,98690.59
2023-05-12T19:39:30.433Z,98698.63
2023-05-12T19:41:58.113Z,98699.63
2023-05-12T19:44:29.997Z,98704.28
2023-05-12T19:47:04.995Z,98693.06
2023-05-12T19:49:38.569Z,98705.16
2023-05-12T19:52:06.350Z,98705.16
2023-05-12T19:54:33.205Z,98704.22
2023-05-12T19:57:00.030Z,98713.34
2023-05-12T19:59:26.983Z,98713.34
2023-05-12T20:01:58.956Z,98709.03
2023-05-12T20:04:27.154Z,98703.25
2023-05-12T20:07:04.899Z,98707.91
2023-05-12T20:09:35.067Z,98720.88
2023-05-12T20:12:01.902Z,98719.75
2023-05-12T20:14:36.099Z,98728.47
2023-05-12T20:17:05.594Z,98721.88
2023-05-12T20:19:33.695Z,98724.44
2023-05-12T20:22:00.673Z,98728.75
2023-05-12T20:24:27.751Z,98726.22
2023-05-12T20:26:55.553Z,98731.31
2023-05-12T20:29:22.938Z,98728.47
2023-05-12T20:31:51.219Z,98724.63
2023-05-12T20:34:23.116Z,98725.75
2023-05-12T20:36:50.024Z,98728.47
2023-05-12T20:39:18.139Z,98723.03
2023-05-12T20:41:45.580Z,98725.28
2023-05-12T20:44:12.612Z,98728.16
2023-05-12T20:46:40.062Z,98730.06
2023-05-12T20:49:07.576Z,98734.09
2023-05-12T20:51:34.682Z,98735.41
2023-05-12T20:54:02.003Z,98744.66
2023-05-12T20:56:28.949Z,98745.63
2023-05-12T20:58:57.525Z,98746.75
2023-05-12T21:01:24.552Z,98748.03
2023-05-12T21:03:51.757Z,98740.03
2023-05-12T21:06:18.692Z,98747.91
2023-05-12T21:08:47.040Z,98747.28
2023-05-12T21:11:17.265Z,98737.19
2023-05-12T21:13:47.220Z,98748.91
2023-05-12T21:16:15.477Z,98751.94
2023-05-12T21:18:42.554Z,98749.72
2023-05-12T21:21:09.456Z,98747.94
2023-05-12T21:23:37.551Z,98751.94
2023-05-12T21:26:05.141Z,98750.00
2023-05-12T21:28:34.367Z,98748.75
2023-05-12T21:31:01.443Z,98761.25
2023-05-12T21:33:28.477Z,98756.44
2023-05-12T21:35:55.811Z,98750.34
2023-05-12T21:38:22.731Z,98761.56
2023-05-12T21:40:57.796Z,98755.63
2023-05-12T21:43:24.608Z,98749.53
2023-05-12T21:45:52.472Z,98752.75
2023-05-12T21:48:19.358Z,98754.34
2023-05-12T21:51:00.960Z,98761.56
2023-05-12T21:53:32.391Z,98760.28
2023-05-12T21:55:59.190Z,98761.41
2023-05-12T21:58:28.237Z,98758.06
2023-05-12T22:00:55.282Z,98768.44
2023-05-12T22:03:25.022Z,98765.59
2023-05-12T22:05:52.856Z,98767.00
2023-05-12T22:08:19.962Z,98762.84
2023-05-12T22:10:47.034Z,98765.44
2023-05-12T22:13:14.806Z,98767.03
2023-05-12T22:15:41.904Z,98779.69
2023-05-12T22:18:08.763Z,98777.13
2023-05-12T22:20:36.160Z,98775.19
2023-05-12T22:23:03.369Z,98777.91
2023-05-12T22:25:30.400Z,98782.59
2023-05-12T22:27:57.151Z,98779.03
2023-05-12T22:30:24.167Z,98779.53
2023-05-12T22:32:51.646Z,98780.66
2023-05-12T22:35:21.036Z,98783.22
2023-05-12T22:37:49.510Z,98783.88
2023-05-12T22:40:16.433Z,98782.75
2023-05-12T22:42:43.254Z,98780.31
2023-05-12T22:45:10.446Z,98775.84
2023-05-12T22:47:40.023Z,98787.56
2023-05-12T22:50:07.434Z,98778.25
2023-05-12T22:52:34.232Z,98778.56
2023-05-12T22:55:06.709Z,98769.75
2023-05-12T22:57:33.613Z,98767.50
2023-05-12T23:00:00.537Z,98776.00
2023-05-12T23:02:27.605Z,98759.81
2023-05-12T23:04:55.991Z,98763.00
2023-05-12T23:07:24.179Z,98768.31
2023-05-12T23:09:51.228Z,98756.28
2023-05-12T23:12:18.051Z,98762.22
2023-05-12T23:14:46.102Z,98760.75
2023-05-12T23:17:12.864Z,98756.78
2023-05-12T23:19:40.314Z,98759.81
2023-05-12T23:22:07.318Z,98759.66
2023-05-12T23:24:36.045Z,98759.47
2023-05-12T23:27:06.222Z,98757.09
2023-05-12T23:29:34.436Z,98765.28
2023-05-12T23:32:01.733Z,98754.03
2023-05-12T23:34:29.023Z,98756.59
2023-05-12T23:36:55.901Z,98750.84
2023-05-12T23:39:25.331Z,98753.41
2023-05-12T23:41:52.387Z,98751.66
2023-05-12T23:44:19.128Z,98753.88
2023-05-12T23:46:46.406Z,98748.41
2023-05-12T23:49:13.219Z,98751.47
2023-05-12T23:51:44.001Z,98749.38
2023-05-12T23:54:10.809Z,98754.00
2023-05-12T23:56:37.697Z,98750.47
2023-05-12T23:59:08.847Z,98753.16
